createdAt,value
2017-11-07T00:00:47.571Z,12.40
2017-11-07T00:03:18.608Z,11.33
2017-11-07T00:05:49.378Z,13.60
2017-11-07T00:08:20.996Z,16.10
2017-11-07T00:10:51.868Z,19.50
2017-11-07T00:13:22.405Z,16.37
2017-11-07T00:15:53.394Z,17.10
2017-11-07T00:18:24.145Z,18.53
2017-11-07T00:20:54.716Z,16.67
2017-11-07T00:23:25.943Z,15.67
2017-11-07T00:25:56.752Z,15.73
2017-11-07T00:28:27.113Z,15.03
2017-11-07T00:30:57.238Z,14.03
2017-11-07T00:33:28.179Z,16.37
2017-11-07T00:35:58.253Z,17.07
2017-11-07T00:38:29.695Z,16.73
2017-11-07T00:41:02.322Z,15.07
2017-11-07T00:43:32.651Z,15.70
2017-11-07T00:46:03.008Z,16.60
2017-11-07T00:48:33.610Z,14.63
2017-11-07T00:51:04.704Z,14.80
2017-11-07T00:53:34.971Z,15.23
2017-11-07T00:56:07.027Z,16.20
2017-11-07T00:58:37.764Z,13.93
2017-11-07T01:01:08.397Z,13.23
2017-11-07T01:03:38.951Z,16.70
2017-11-07T01:06:10.376Z,16.50
2017-11-07T01:08:41.366Z,16.57
2017-11-07T01:11:11.746Z,15.90
2017-11-07T01:13:41.873Z,15.50
2017-11-07T01:16:12.421Z,17.27
2017-11-07T01:18:42.574Z,19.30
2017-11-07T01:21:14.676Z,13.33
2017-11-07T01:23:45.622Z,16.70
2017-11-07T01:26:16.739Z,14.87
2017-11-07T01:28:47.426Z,14.90
2017-11-07T01:31:17.733Z,18.10
2017-11-07T01:33:48.877Z,14.53
2017-11-07T01:36:19.317Z,16.60
2017-11-07T01:38:49.771Z,15.20
2017-11-07T01:41:20.414Z,18.17
2017-11-07T01:43:50.763Z,16.90
2017-11-07T01:46:27.309Z,16.17
2017-11-07T01:48:58.882Z,16.17
2017-11-07T01:51:29.439Z,15.93
2017-11-07T01:53:59.802Z,13.20
2017-11-07T01:56:30.429Z,16.20
2017-11-07T01:59:01.266Z,18.00
2017-11-07T02:01:32.153Z,17.40
2017-11-07T02:04:03.006Z,17.00
2017-11-07T02:06:33.387Z,17.80
2017-11-07T02:09:04.627Z,13.70
2017-11-07T02:11:35.247Z,16.97
2017-11-07T02:14:05.590Z,14.00
2017-11-07T02:16:35.965Z,14.67
2017-11-07T02:19:07.929Z,15.93
2017-11-07T02:21:39.151Z,14.80
2017-11-07T02:24:10.943Z,15.30
2017-11-07T02:26:41.809Z,14.73
2017-11-07T02:29:12.338Z,12.10
2017-11-07T02:31:42.829Z,13.93
2017-11-07T02:34:13.760Z,12.63
2017-11-07T02:36:44.776Z,11.63
2017-11-07T02:39:15.302Z,13.70
2017-11-07T02:41:45.673Z,13.27
2017-11-07T02:44:16.595Z,14.30
2017-11-07T02:46:48.217Z,13.57
2017-11-07T02:49:18.819Z,13.63
2017-11-07T02:51:49.299Z,15.07
2017-11-07T02:54:20.547Z,15.77
2017-11-07T02:56:50.745Z,13.57
2017-11-07T02:59:21.789Z,13.40
2017-11-07T03:01:52.237Z,12.67
2017-11-07T03:04:23.987Z,12.27
2017-11-07T03:06:54.807Z,11.83
2017-11-07T03:09:25.587Z,10.80
2017-11-07T03:11:56.276Z,13.20
2017-11-07T03:14:26.816Z,10.10
2017-11-07T03:16:57.688Z,10.00
2017-11-07T03:19:28.623Z,12.27
2017-11-07T03:21:59.046Z,12.27
2017-11-07T03:24:29.658Z,12.60
2017-11-07T03:27:00.528Z,12.17
2017-11-07T03:29:32.880Z,12.00
2017-11-07T03:32:03.068Z,12.40
2017-11-07T03:34:34.258Z,9.00
2017-11-07T03:37:04.447Z,11.37
2017-11-07T03:39:34.670Z,13.07
2017-11-07T03:42:05.586Z,11.93
2017-11-07T03:44:35.943Z,11.23
2017-11-07T03:47:07.263Z,12.70
2017-11-07T03:49:38.260Z,10.77
2017-11-07T03:55:41.835Z,10.23
2017-11-07T03:58:13.047Z,9.23
2017-11-07T04:00:43.262Z,9.90
2017-11-07T04:03:15.440Z,9.07
2017-11-07T04:05:45.898Z,13.63
2017-11-07T04:08:16.437Z,12.23
2017-11-07T04:10:47.056Z,11.00
2017-11-07T04:13:18.501Z,10.97
2017-11-07T04:15:49.859Z,11.43
2017-11-07T04:18:20.416Z,8.73
2017-11-07T04:20:51.095Z,10.63
2017-11-07T04:23:22.699Z,13.40
2017-11-07T04:25:53.271Z,12.07
2017-11-07T04:28:24.339Z,12.27
2017-11-07T04:30:54.787Z,11.00
2017-11-07T04:33:25.394Z,11.40
2017-11-07T04:35:55.831Z,11.67
2017-11-07T04:38:26.417Z,11.07
2017-11-07T04:40:57.246Z,11.50
2017-11-07T04:43:29.658Z,11.77
2017-11-07T04:46:00.189Z,9.00
2017-11-07T04:48:31.469Z,8.47
2017-11-07T04:51:02.036Z,8.77
2017-11-07T04:53:32.082Z,9.00
2017-11-07T04:56:04.159Z,9.83
2017-11-07T05:00:03.833Z,8.50
2017-11-07T05:02:34.136Z,8.20
2017-11-07T05:05:04.636Z,7.80
2017-11-07T05:07:35.282Z,8.10
2017-11-07T05:10:06.653Z,9.60
2017-11-07T05:12:37.952Z,9.33
2017-11-07T05:15:09.452Z,7.37
2017-11-07T05:17:40.249Z,9.30
2017-11-07T05:20:11.427Z,9.93
2017-11-07T05:22:41.965Z,9.97
2017-11-07T05:25:12.424Z,7.77
2017-11-07T05:27:43.154Z,9.10
2017-11-07T05:30:14.306Z,8.57
2017-11-07T05:32:45.175Z,9.40
2017-11-07T05:35:15.533Z,6.83
2017-11-07T05:37:47.059Z,11.20
2017-11-07T05:40:17.710Z,7.70
2017-11-07T05:44:17.418Z,7.17
2017-11-07T05:46:48.557Z,8.90
2017-11-07T05:49:20.883Z,8.67
2017-11-07T05:51:52.996Z,7.93
2017-11-07T05:54:23.763Z,9.20
2017-11-07T05:56:55.354Z,10.33
2017-11-07T05:59:25.643Z,10.20
2017-11-07T06:01:57.189Z,8.87
2017-11-07T06:04:28.086Z,8.53
2017-11-07T06:06:58.683Z,9.00
2017-11-07T06:09:29.602Z,6.93
2017-11-07T06:12:00.057Z,8.63
2017-11-07T06:14:30.602Z,8.37
2017-11-07T06:17:05.956Z,10.30
2017-11-07T06:19:36.089Z,10.40
2017-11-07T06:22:06.652Z,9.80
2017-11-07T06:24:37.566Z,9.50
2017-11-07T06:27:08.369Z,9.90
2017-11-07T06:29:38.702Z,7.77
2017-11-07T06:32:12.658Z,8.83
2017-11-07T06:34:42.649Z,10.60
2017-11-07T06:37:12.587Z,10.30
2017-11-07T06:39:43.531Z,9.17
2017-11-07T06:42:15.960Z,9.83
2017-11-07T06:44:46.004Z,8.93
2017-11-07T06:47:17.214Z,8.90
2017-11-07T06:49:49.718Z,9.77
2017-11-07T06:52:20.570Z,9.07
2017-11-07T06:54:50.689Z,10.10
2017-11-07T06:57:20.746Z,9.50
2017-11-07T06:59:51.185Z,9.57
2017-11-07T07:02:21.459Z,8.50
2017-11-07T07:04:51.566Z,9.80
2017-11-07T07:07:22.342Z,9.07
2017-11-07T07:09:52.718Z,10.00
2017-11-07T07:12:22.938Z,7.60
2017-11-07T07:14:53.948Z,10.10
2017-11-07T07:17:24.373Z,9.80
2017-11-07T07:19:54.533Z,8.17
2017-11-07T07:22:25.437Z,8.73
2017-11-07T07:24:55.394Z,8.90
2017-11-07T07:27:27.674Z,6.03
2017-11-07T07:29:57.708Z,8.80
2017-11-07T07:32:27.943Z,9.90
2017-11-07T07:34:57.973Z,9.03
2017-11-07T07:37:28.056Z,7.93
2017-11-07T07:39:58.589Z,7.20
2017-11-07T07:42:29.215Z,9.10
2017-11-07T07:45:00.067Z,9.80
2017-11-07T07:47:30.675Z,7.83
2017-11-07T07:50:00.994Z,10.43
2017-11-07T07:52:32.752Z,10.50
2017-11-07T07:55:03.061Z,8.97
2017-11-07T07:57:33.963Z,8.73
2017-11-07T08:00:05.224Z,10.77
2017-11-07T08:02:36.140Z,10.13
2017-11-07T08:05:07.902Z,9.93
2017-11-07T08:07:39.495Z,10.90
2017-11-07T08:10:10.686Z,10.13
2017-11-07T08:12:40.706Z,10.50
2017-11-07T08:15:10.986Z,11.60
2017-11-07T08:17:41.115Z,10.60
2017-11-07T08:20:14.773Z,10.97
2017-11-07T08:22:46.002Z,10.03
2017-11-07T08:25:16.206Z,12.83
2017-11-07T08:27:46.295Z,10.60
2017-11-07T08:30:16.332Z,10.87
2017-11-07T08:32:47.422Z,12.00
2017-11-07T08:35:19.543Z,12.90
2017-11-07T08:37:50.721Z,12.53
2017-11-07T08:40:20.841Z,10.77
2017-11-07T08:42:52.356Z,10.77
2017-11-07T08:45:22.410Z,11.57
2017-11-07T08:47:53.037Z,10.40
2017-11-07T08:50:23.055Z,10.17
2017-11-07T08:52:53.323Z,11.00
2017-11-07T08:55:23.247Z,11.40
2017-11-07T08:57:54.069Z,11.33
2017-11-07T09:00:24.144Z,10.53
2017-11-07T09:02:54.530Z,9.53
2017-11-07T09:05:25.334Z,10.50
2017-11-07T09:07:55.922Z,10.23
2017-11-07T09:10:26.173Z,10.10
2017-11-07T09:12:56.676Z,8.80
2017-11-07T09:15:27.368Z,11.10
2017-11-07T09:17:57.553Z,9.70
2017-11-07T09:20:27.997Z,8.70
2017-11-07T09:22:58.042Z,10.00
2017-11-07T09:25:28.189Z,10.00
2017-11-07T09:27:59.636Z,11.00
2017-11-07T09:30:29.794Z,9.50
2017-11-07T09:33:02.207Z,10.10
2017-11-07T09:35:32.671Z,11.17
2017-11-07T09:38:02.709Z,9.67
2017-11-07T09:40:33.476Z,9.63
2017-11-07T09:43:03.769Z,9.03
2017-11-07T09:45:35.087Z,10.40
2017-11-07T09:48:06.228Z,10.83
2017-11-07T09:50:36.886Z,9.27
2017-11-07T09:53:08.924Z,10.03
2017-11-07T09:55:38.995Z,9.87
2017-11-07T09:58:09.499Z,11.10
2017-11-07T10:00:39.947Z,11.40
2017-11-07T10:03:10.242Z,11.47
2017-11-07T10:05:40.338Z,12.67
2017-11-07T10:08:10.509Z,11.40
2017-11-07T10:10:41.349Z,12.40
2017-11-07T10:13:11.462Z,9.70
2017-11-07T10:15:41.678Z,11.90
2017-11-07T10:18:12.760Z,11.73
2017-11-07T10:20:43.704Z,10.77
2017-11-07T10:23:15.134Z,10.57
2017-11-07T10:25:47.007Z,8.70
2017-11-07T10:28:17.669Z,11.03
2017-11-07T10:30:48.534Z,10.13
2017-11-07T10:33:18.738Z,9.70
2017-11-07T10:35:48.990Z,7.87
2017-11-07T10:38:19.180Z,9.20
2017-11-07T10:40:49.233Z,9.93
2017-11-07T10:43:19.354Z,7.10
2017-11-07T10:45:50.366Z,8.23
2017-11-07T10:48:20.338Z,8.20
2017-11-07T10:50:51.646Z,9.63
2017-11-07T10:53:21.774Z,9.90
2017-11-07T10:55:52.408Z,8.50
2017-11-07T10:59:52.006Z,8.40
2017-11-07T11:02:23.319Z,9.43
2017-11-07T11:04:53.483Z,10.10
2017-11-07T11:07:23.784Z,9.63
2017-11-07T11:09:54.295Z,8.87
2017-11-07T11:12:25.147Z,9.80
2017-11-07T11:14:55.746Z,10.73
2017-11-07T11:17:27.896Z,10.10
2017-11-07T11:20:00.153Z,9.87
2017-11-07T11:22:30.903Z,10.63
2017-11-07T11:25:01.917Z,12.90
2017-11-07T11:27:32.926Z,10.00
2017-11-07T11:30:03.763Z,10.10
2017-11-07T11:32:34.784Z,9.77
2017-11-07T11:35:06.519Z,9.73
2017-11-07T11:37:37.511Z,10.00
2017-11-07T11:40:08.865Z,10.87
2017-11-07T11:42:39.973Z,11.40
2017-11-07T11:45:10.610Z,9.40
2017-11-07T11:47:40.726Z,9.23
2017-11-07T11:50:12.883Z,9.47
2017-11-07T11:52:43.855Z,9.17
2017-11-07T11:55:14.687Z,9.13
2017-11-07T11:57:44.809Z,8.37
2017-11-07T12:00:15.104Z,7.13
2017-11-07T12:02:45.229Z,8.27
2017-11-07T12:05:16.686Z,8.23
2017-11-07T12:07:47.137Z,7.40
2017-11-07T12:10:18.726Z,7.17
2017-11-07T12:12:50.173Z,7.90
2017-11-07T12:15:21.487Z,6.97
2017-11-07T12:17:52.301Z,6.90
2017-11-07T12:20:23.498Z,7.33
2017-11-07T12:22:54.598Z,7.90
2017-11-07T12:25:24.811Z,7.63
2017-11-07T12:27:55.173Z,8.10
2017-11-07T12:30:25.552Z,7.10
2017-11-07T12:32:57.045Z,6.97
2017-11-07T12:35:27.788Z,7.50
2017-11-07T12:37:58.072Z,7.70
2017-11-07T12:40:28.563Z,7.80
2017-11-07T12:42:59.181Z,7.27
2017-11-07T12:45:29.471Z,7.10
2017-11-07T12:48:00.401Z,6.67
2017-11-07T12:52:42.074Z,7.13
2017-11-07T12:55:12.194Z,6.90
2017-11-07T12:57:43.760Z,6.77
2017-11-07T13:00:14.135Z,6.80
2017-11-07T13:02:46.333Z,6.47
2017-11-07T13:05:17.811Z,7.43
2017-11-07T13:07:49.485Z,6.40
2017-11-07T13:10:19.845Z,6.93
2017-11-07T13:12:50.112Z,8.27
2017-11-07T13:15:20.726Z,7.20
2017-11-07T13:17:51.493Z,6.97
2017-11-07T13:20:23.039Z,7.93
2017-11-07T13:22:53.627Z,7.40
2017-11-07T13:25:24.508Z,7.40
2017-11-07T13:27:55.743Z,7.33
2017-11-07T13:30:30.143Z,6.70
2017-11-07T13:33:01.006Z,7.07
2017-11-07T13:35:31.934Z,6.50
2017-11-07T13:38:02.957Z,6.17
2017-11-07T13:40:34.406Z,6.83
2017-11-07T13:43:05.537Z,5.93
2017-11-07T13:45:37.890Z,6.90
2017-11-07T13:48:09.076Z,6.70
2017-11-07T13:50:39.766Z,6.13
2017-11-07T13:53:11.452Z,6.20
2017-11-07T13:55:43.058Z,6.10
2017-11-07T13:58:15.062Z,7.20
2017-11-07T14:00:46.767Z,6.67
2017-11-07T14:03:18.260Z,7.07
2017-11-07T14:05:48.571Z,5.70
2017-11-07T14:08:19.917Z,6.83
2017-11-07T14:10:50.519Z,7.30
2017-11-07T14:13:21.522Z,7.10
2017-11-07T14:15:52.154Z,6.57
2017-11-07T14:18:23.159Z,7.10
2017-11-07T14:20:54.792Z,6.33
2017-11-07T14:23:25.986Z,6.93
2017-11-07T14:25:57.338Z,6.70
2017-11-07T14:28:27.576Z,7.60
2017-11-07T14:30:59.202Z,6.90
2017-11-07T14:33:30.207Z,7.50
2017-11-07T14:36:01.167Z,7.37
2017-11-07T14:38:31.867Z,7.20
2017-11-07T14:41:03.260Z,7.70
2017-11-07T14:43:34.712Z,6.80
2017-11-07T14:46:05.749Z,8.27
2017-11-07T14:48:36.693Z,7.40
2017-11-07T14:51:06.994Z,7.10
2017-11-07T14:53:37.611Z,7.47
2017-11-07T14:56:09.025Z,6.90
2017-11-07T14:58:40.516Z,7.73
2017-11-07T15:01:10.952Z,7.43
2017-11-07T15:03:41.675Z,7.97
2017-11-07T15:06:12.443Z,7.40
2017-11-07T15:08:45.655Z,8.20
2017-11-07T15:11:16.847Z,7.17
2017-11-07T15:13:51.348Z,7.77
2017-11-07T15:16:21.752Z,9.13
2017-11-07T15:18:52.767Z,9.43
2017-11-07T15:21:24.602Z,9.17
2017-11-07T15:23:55.160Z,8.60
2017-11-07T15:26:25.713Z,9.60
2017-11-07T15:28:55.867Z,10.00
2017-11-07T15:31:27.108Z,9.20
2017-11-07T15:33:57.668Z,10.97
2017-11-07T15:36:29.495Z,10.70
2017-11-07T15:38:59.789Z,10.43
2017-11-07T15:41:30.175Z,11.20
2017-11-07T15:44:00.343Z,10.23
2017-11-07T15:46:30.626Z,10.67
2017-11-07T15:49:01.717Z,11.87
2017-11-07T15:51:32.322Z,10.60
2017-11-07T15:54:02.979Z,10.70
2017-11-07T15:56:33.761Z,12.50
2017-11-07T15:59:06.360Z,12.20
2017-11-07T16:01:39.543Z,12.47
2017-11-07T16:04:10.788Z,11.27
2017-11-07T16:06:41.359Z,11.47
2017-11-07T16:09:11.730Z,11.30
2017-11-07T16:11:43.128Z,11.87
2017-11-07T16:14:13.872Z,10.70
2017-11-07T16:16:44.242Z,11.20
2017-11-07T16:19:15.429Z,11.57
2017-11-07T16:21:46.522Z,10.20
2017-11-07T16:24:20.111Z,12.67
2017-11-07T16:26:50.498Z,11.30
2017-11-07T16:29:20.894Z,12.50
2017-11-07T16:31:51.748Z,12.03
2017-11-07T16:34:22.268Z,11.40
2017-11-07T16:36:53.183Z,13.23
2017-11-07T16:39:25.104Z,9.93
2017-11-07T16:41:56.476Z,10.87
2017-11-07T16:44:27.267Z,10.53
2017-11-07T16:46:57.433Z,11.60
2017-11-07T16:49:27.792Z,11.17
2017-11-07T16:51:57.986Z,12.23
2017-11-07T16:54:28.661Z,11.40
2017-11-07T16:56:59.235Z,12.23
2017-11-07T16:59:29.439Z,11.60
2017-11-07T17:01:59.808Z,11.83
2017-11-07T17:04:30.886Z,12.10
2017-11-07T17:07:03.169Z,12.30
2017-11-07T17:09:34.225Z,12.87
2017-11-07T17:12:04.620Z,11.90
2017-11-07T17:14:36.356Z,12.70
2017-11-07T17:17:06.591Z,11.90
2017-11-07T17:19:36.890Z,13.97
2017-11-07T17:22:07.134Z,12.13
2017-11-07T17:24:37.235Z,14.30
2017-11-07T17:27:07.436Z,14.93
2017-11-07T17:29:38.022Z,16.20
2017-11-07T17:32:08.247Z,15.10
2017-11-07T17:34:38.463Z,12.97
2017-11-07T17:37:08.988Z,11.80
2017-11-07T17:39:39.120Z,13.50
2017-11-07T17:42:09.362Z,14.80
2017-11-07T17:44:41.398Z,13.67
2017-11-07T17:47:11.680Z,14.23
2017-11-07T17:49:41.973Z,15.67
2017-11-07T17:52:12.958Z,14.90
2017-11-07T17:54:43.506Z,15.33
2017-11-07T17:57:13.901Z,15.17
2017-11-07T17:59:44.221Z,16.03
2017-11-07T18:02:15.466Z,14.50
2017-11-07T18:04:45.937Z,13.67
2017-11-07T18:07:16.396Z,15.20
2017-11-07T18:09:46.850Z,12.43
2017-11-07T18:12:17.574Z,13.07
2017-11-07T18:14:47.929Z,14.10
2017-11-07T18:17:18.259Z,13.73
2017-11-07T18:19:49.359Z,14.93
2017-11-07T18:22:19.778Z,13.60
2017-11-07T18:24:50.360Z,14.80
2017-11-07T18:27:20.783Z,13.33
2017-11-07T18:29:52.202Z,12.60
2017-11-07T18:32:23.290Z,15.53
2017-11-07T18:34:54.981Z,12.90
2017-11-07T18:37:28.066Z,15.93
2017-11-07T18:40:06.992Z,14.53
2017-11-07T18:42:41.430Z,14.63
2017-11-07T18:45:12.407Z,14.50
2017-11-07T18:47:45.602Z,13.90
2017-11-07T18:50:23.149Z,15.00
2017-11-07T18:52:57.696Z,13.90
2017-11-07T18:55:30.515Z,14.40
2017-11-07T18:58:01.068Z,15.03
2017-11-07T19:00:31.606Z,13.67
2017-11-07T19:03:05.471Z,13.43
2017-11-07T19:05:37.384Z,12.33
2017-11-07T19:08:08.537Z,11.50
2017-11-07T19:10:41.045Z,14.00
2017-11-07T19:13:12.710Z,12.70
2017-11-07T19:15:43.381Z,12.43
2017-11-07T19:18:15.142Z,12.33
2017-11-07T19:20:48.122Z,12.57
2017-11-07T19:23:19.315Z,14.23
2017-11-07T19:25:53.599Z,14.40
2017-11-07T19:28:25.739Z,16.70
2017-11-07T19:31:00.030Z,12.77
2017-11-07T19:33:31.326Z,10.80
2017-11-07T19:36:02.315Z,12.70
2017-11-07T19:38:33.821Z,12.70
2017-11-07T19:41:07.170Z,14.00
2017-11-07T19:43:38.349Z,12.67
2017-11-07T19:46:12.505Z,13.20
2017-11-07T19:48:46.232Z,14.20
2017-11-07T19:51:17.819Z,16.33
2017-11-07T19:53:50.682Z,13.97
2017-11-07T19:56:25.446Z,14.13
2017-11-07T19:58:56.640Z,15.03
2017-11-07T20:01:28.789Z,12.93
2017-11-07T20:04:01.919Z,12.07
2017-11-07T20:06:33.389Z,11.90
2017-11-07T20:09:05.298Z,12.90
2017-11-07T20:11:36.641Z,10.80
2017-11-07T20:14:07.346Z,11.47
2017-11-07T20:16:39.395Z,11.70
2017-11-07T20:19:10.929Z,13.90
2017-11-07T20:21:42.579Z,14.00
2017-11-07T20:24:13.603Z,13.07
2017-11-07T20:26:44.863Z,12.80
2017-11-07T20:29:15.904Z,11.13
2017-11-07T20:31:47.016Z,12.20
2017-11-07T20:34:19.463Z,12.97
2017-11-07T20:36:57.383Z,12.63
2017-11-07T20:39:29.362Z,11.83
2017-11-07T20:42:01.313Z,12.17
2017-11-07T20:44:42.037Z,12.50
2017-11-07T20:47:13.527Z,13.03
2017-11-07T20:49:45.095Z,12.20
2017-11-07T20:52:16.337Z,12.33
2017-11-07T20:54:52.668Z,13.33
2017-11-07T20:57:29.489Z,12.40
2017-11-07T21:00:05.607Z,10.57
2017-11-07T21:02:42.132Z,12.37
2017-11-07T21:05:12.855Z,12.67
2017-11-07T21:07:43.926Z,12.40
2017-11-07T21:10:18.221Z,11.23
2017-11-07T21:12:54.658Z,10.77
2017-11-07T21:15:30.434Z,12.67
2017-11-07T21:18:09.007Z,11.57
2017-11-07T21:20:40.275Z,12.10
2017-11-07T21:23:21.357Z,10.23
2017-11-07T21:25:53.581Z,11.03
2017-11-07T21:28:34.884Z,12.37
2017-11-07T21:31:06.906Z,12.37
2017-11-07T21:33:39.895Z,12.77
2017-11-07T21:36:14.206Z,11.43
2017-11-07T21:38:45.527Z,9.40
2017-11-07T21:41:17.267Z,13.77
2017-11-07T21:43:53.026Z,12.87
2017-11-07T21:46:23.595Z,12.20
2017-11-07T21:48:54.778Z,10.80
2017-11-07T21:51:26.726Z,12.77
2017-11-07T21:53:57.191Z,11.40
2017-11-07T21:56:28.085Z,11.20
2017-11-07T21:58:59.564Z,11.90
2017-11-07T22:01:30.505Z,11.77
2017-11-07T22:04:02.245Z,11.97
2017-11-07T22:06:34.661Z,11.57
2017-11-07T22:09:07.327Z,11.00
2017-11-07T22:11:37.957Z,10.30
2017-11-07T22:14:09.840Z,9.23
2017-11-07T22:16:47.207Z,10.63
2017-11-07T22:19:22.793Z,10.33
2017-11-07T22:21:53.804Z,9.37
2017-11-07T22:24:25.253Z,8.97
2017-11-07T22:26:55.965Z,10.27
2017-11-07T22:29:27.507Z,12.80
2017-11-07T22:31:58.068Z,12.00
2017-11-07T22:34:28.885Z,11.50
2017-11-07T22:37:00.418Z,9.33
2017-11-07T22:39:33.858Z,11.10
2017-11-07T22:42:05.196Z,10.93
2017-11-07T22:44:36.487Z,10.30
2017-11-07T22:47:07.043Z,9.60
2017-11-07T22:49:37.463Z,11.50
2017-11-07T22:52:07.900Z,10.63
2017-11-07T22:54:38.396Z,9.53
2017-11-07T22:57:10.069Z,10.67
2017-11-07T22:59:40.620Z,10.67
2017-11-07T23:02:11.167Z,9.23
2017-11-07T23:04:42.817Z,13.03
2017-11-07T23:07:14.288Z,8.30
2017-11-07T23:09:44.750Z,9.67
2017-11-07T23:12:16.141Z,12.47
2017-11-07T23:14:47.171Z,12.20
2017-11-07T23:17:17.710Z,12.80
2017-11-07T23:19:48.686Z,10.73
2017-11-07T23:22:19.173Z,10.40
2017-11-07T23:24:50.794Z,13.33
2017-11-07T23:27:21.972Z,9.23
2017-11-07T23:29:52.414Z,10.10
2017-11-07T23:32:23.853Z,9.80
2017-11-07T23:34:55.631Z,9.83
2017-11-07T23:37:26.762Z,11.13
2017-11-07T23:39:57.335Z,10.33
2017-11-07T23:42:30.577Z,9.73
2017-11-07T23:45:01.117Z,11.33
2017-11-07T23:47:41.875Z,12.30
2017-11-07T23:50:21.175Z,11.40
2017-11-07T23:53:00.458Z,11.00
2017-11-07T23:55:36.195Z,10.70
2017-11-07T23:58:15.064Z,11.83
